Time;durP1;ratioP1;P1;durP2;ratioP2;P2;SDS_P1;SDS_P2;PMS_P1;PMS_P2;Temp;Humidity;BMP_temperature;BMP_pressure;BME280_temperature;BME280_humidity;BME280_pressure;Samples;Min_cycle;Max_cycle;Signal;HPM_P1;HPM_P2
2021/06/23 00:00:39;;;;;;;8.55;5.18;;;12.20;99.90;;;;;;5050611;28;20053;-52
2021/06/23 00:03:04;;;;;;;8.45;4.47;;;12.20;99.90;;;;;;5050955;28;20057;-50
2021/06/23 00:05:30;;;;;;;8.07;4.72;;;12.10;99.90;;;;;;5049836;28;20420;-51
2021/06/23 00:07:56;;;;;;;7.63;4.90;;;12.10;99.90;;;;;;5050836;28;20032;-52
2021/06/23 00:10:22;;;;;;;6.05;5.28;;;12.10;99.90;;;;;;5050909;28;20384;-52
2021/06/23 00:12:50;;;;;;;7.47;3.90;;;12.10;99.90;;;;;;5041013;28;20037;-54
2021/06/23 00:15:17;;;;;;;6.90;5.53;;;12.10;99.90;;;;;;5030830;28;20018;-53
2021/06/23 00:17:43;;;;;;;8.18;5.65;;;12.10;99.90;;;;;;5031098;28;20076;-53
2021/06/23 00:20:09;;;;;;;6.38;4.50;;;12.00;99.90;;;;;;5029606;28;20314;-53
2021/06/23 00:22:35;;;;;;;7.05;5.53;;;12.00;99.90;;;;;;5030905;28;20026;-52
2021/06/23 00:25:01;;;;;;;7.43;5.95;;;12.00;99.90;;;;;;5030644;28;20503;-56
2021/06/23 00:27:26;;;;;;;4.50;3.97;;;12.00;99.90;;;;;;5030770;28;20025;-51
2021/06/23 00:29:52;;;;;;;5.97;4.57;;;12.00;99.90;;;;;;5030317;28;20101;-51
2021/06/23 00:32:20;;;;;;;6.68;5.22;;;12.00;99.90;;;;;;5030800;28;20025;-55
2021/06/23 00:34:46;;;;;;;5.10;4.20;;;11.90;99.90;;;;;;5030719;28;20053;-49
2021/06/23 00:37:12;;;;;;;5.47;3.90;;;11.90;99.90;;;;;;5026654;28;20520;-52
2021/06/23 00:39:37;;;;;;;5.57;4.40;;;11.80;99.90;;;;;;5034212;28;20121;-53
2021/06/23 00:42:04;;;;;;;7.88;5.57;;;11.80;99.90;;;;;;5032046;28;20556;-52
2021/06/23 00:44:30;;;;;;;6.65;4.85;;;11.70;99.90;;;;;;5032197;28;20108;-51
2021/06/23 00:46:56;;;;;;;8.30;5.22;;;11.70;99.90;;;;;;5032185;28;20101;-52
2021/06/23 00:49:22;;;;;;;5.88;4.60;;;11.70;99.90;;;;;;5031741;28;20052;-51
2021/06/23 00:51:48;;;;;;;4.90;3.92;;;11.70;99.90;;;;;;5036442;28;20044;-52
2021/06/23 00:54:15;;;;;;;6.90;4.78;;;11.60;99.90;;;;;;5036028;28;20037;-53
2021/06/23 00:56:41;;;;;;;6.72;4.45;;;11.60;99.90;;;;;;5035710;28;20484;-55
2021/06/23 00:59:10;;;;;;;5.75;4.97;;;11.60;99.90;;;;;;5035051;28;20099;-48
2021/06/23 01:08:58;;;;;;;6.88;4.80;;;11.50;99.90;;;;;;5014401;28;20385;-55
2021/06/23 01:11:27;;;;;;;5.82;4.30;;;11.50;99.90;;;;;;5034629;28;20116;-51
2021/06/23 01:13:57;;;;;;;5.63;4.45;;;11.50;99.90;;;;;;5054759;28;20024;-51
2021/06/23 01:16:28;;;;;;;5.57;5.07;;;11.40;99.90;;;;;;5055860;28;20044;-55
2021/06/23 01:18:55;;;;;;;6.53;5.00;;;11.40;99.90;;;;;;5055818;28;20025;-50
2021/06/23 01:21:21;;;;;;;6.78;5.20;;;11.40;99.90;;;;;;5054735;28;20033;-49
2021/06/23 01:23:46;;;;;;;9.07;5.43;;;11.50;99.90;;;;;;5055707;28;20400;-51
2021/06/23 01:26:12;;;;;;;7.72;4.93;;;11.40;99.90;;;;;;5055162;28;20021;-50
2021/06/23 01:28:38;;;;;;;6.43;4.63;;;11.40;99.90;;;;;;5055702;28;20465;-54
2021/06/23 01:31:03;;;;;;;7.75;5.07;;;11.40;99.90;;;;;;5055039;28;20498;-52
2021/06/23 01:33:30;;;;;;;8.27;5.10;;;11.30;99.90;;;;;;5055661;28;20021;-51
2021/06/23 01:35:56;;;;;;;8.60;5.32;;;11.30;99.90;;;;;;5046117;28;20079;-51
2021/06/23 01:38:22;;;;;;;5.93;3.83;;;11.30;99.90;;;;;;5035574;28;20095;-50
2021/06/23 01:40:48;;;;;;;5.70;4.15;;;11.30;99.90;;;;;;5035192;28;20473;-50
2021/06/23 01:43:14;;;;;;;6.80;5.45;;;11.20;99.90;;;;;;5035384;28;20032;-54
2021/06/23 01:45:44;;;;;;;4.78;4.30;;;11.20;99.90;;;;;;5033976;28;20021;-50
2021/06/23 01:48:10;;;;;;;5.28;4.13;;;11.20;99.90;;;;;;5035357;28;20362;-49
2021/06/23 01:50:35;;;;;;;5.45;4.63;;;11.10;99.90;;;;;;5034462;28;20101;-49
2021/06/23 01:53:01;;;;;;;6.88;5.57;;;11.10;99.90;;;;;;5035114;28;20390;-51
2021/06/23 01:55:27;;;;;;;6.53;4.50;;;11.10;99.90;;;;;;5035008;28;20460;-51
2021/06/23 01:58:13;;;;;;;6.43;4.75;;;11.10;99.90;;;;;;5035089;28;20022;-52
2021/06/23 02:00:48;;;;;;;7.47;4.20;;;11.10;99.90;;;;;;5034505;28;20037;-51
2021/06/23 02:03:45;;;;;;;5.40;3.80;;;11.10;99.90;;;;;;5034385;28;20037;-49
2021/06/23 02:06:39;;;;;;;7.18;5.55;;;11.00;99.90;;;;;;5016324;28;20057;-53
2021/06/23 02:09:35;;;;;;;5.10;4.45;;;11.00;99.90;;;;;;5034771;28;20435;-50
2021/06/23 02:12:25;;;;;;;4.35;3.88;;;11.00;99.90;;;;;;5038216;28;20104;-52
2021/06/23 02:15:01;;;;;;;7.70;5.35;;;11.00;99.90;;;;;;5054807;28;20104;-56
2021/06/23 02:17:29;;;;;;;8.45;6.05;;;11.00;99.90;;;;;;5054509;28;20036;-51
2021/06/23 02:19:56;;;;;;;6.38;4.47;;;11.00;99.90;;;;;;5054058;28;20071;-56
2021/06/23 02:22:24;;;;;;;8.18;5.32;;;11.00;99.90;;;;;;5054473;28;20029;-51
2021/06/23 02:25:06;;;;;;;5.20;4.70;;;11.00;99.90;;;;;;5054468;28;20043;-54
2021/06/23 02:27:32;;;;;;;6.22;4.75;;;10.90;99.90;;;;;;5054500;28;20459;-49
2021/06/23 02:29:58;;;;;;;4.00;3.60;;;10.90;99.90;;;;;;5054505;28;20025;-50
2021/06/23 02:32:26;;;;;;;7.65;4.63;;;10.90;99.90;;;;;;5054227;28;20138;-50
2021/06/23 02:34:54;;;;;;;6.20;4.95;;;10.90;99.90;;;;;;5054232;28;20113;-52
2021/06/23 02:37:20;;;;;;;6.13;5.18;;;10.90;99.90;;;;;;5034032;28;20025;-51
2021/06/23 02:39:48;;;;;;;6.32;4.57;;;10.90;99.90;;;;;;5034418;28;20032;-48
2021/06/23 02:42:14;;;;;;;9.23;5.45;;;10.90;99.90;;;;;;5034005;28;20032;-51
2021/06/23 02:44:40;;;;;;;6.38;5.43;;;10.90;99.90;;;;;;5034329;28;20032;-55
2021/06/23 02:47:06;;;;;;;8.30;4.78;;;10.90;99.90;;;;;;5033912;28;20053;-48
2021/06/23 02:49:33;;;;;;;6.55;5.30;;;10.90;99.90;;;;;;5034296;28;20018;-54
2021/06/23 02:52:00;;;;;;;8.70;5.60;;;11.00;99.90;;;;;;5032979;28;20055;-50
2021/06/23 02:54:26;;;;;;;7.55;5.18;;;11.00;99.90;;;;;;5034064;28;20026;-53
2021/06/23 02:56:52;;;;;;;10.38;5.55;;;11.00;99.90;;;;;;5033916;28;20025;-52
2021/06/23 02:59:19;;;;;;;11.45;6.47;;;11.10;99.90;;;;;;5033877;28;20040;-52
2021/06/23 03:01:46;;;;;;;5.28;4.65;;;11.10;99.90;;;;;;5033688;28;20025;-51
2021/06/23 03:04:12;;;;;;;6.95;5.93;;;11.20;99.90;;;;;;5033769;28;20017;-53
2021/06/23 03:06:37;;;;;;;7.75;4.90;;;11.20;99.90;;;;;;5032730;28;20032;-52
2021/06/23 03:09:04;;;;;;;7.55;5.65;;;11.20;99.90;;;;;;5033701;28;20053;-50
2021/06/23 03:11:38;;;;;;;7.95;5.40;;;11.30;99.90;;;;;;5033682;28;20026;-54
2021/06/23 03:14:04;;;;;;;8.48;5.47;;;11.40;99.90;;;;;;5012285;28;20026;-51
2021/06/23 03:16:29;;;;;;;6.18;5.25;;;11.50;99.90;;;;;;5013880;28;20430;-49
2021/06/23 03:18:55;;;;;;;6.47;5.80;;;11.60;99.90;;;;;;5013627;28;20117;-53
2021/06/23 03:21:21;;;;;;;7.85;5.78;;;11.80;99.90;;;;;;5012728;28;20030;-51
2021/06/23 03:23:50;;;;;;;6.78;5.20;;;11.90;99.90;;;;;;5013856;28;20537;-52
2021/06/23 03:26:16;;;;;;;5.30;4.80;;;12.00;99.90;;;;;;5013546;28;20060;-53
2021/06/23 03:28:42;;;;;;;7.60;5.28;;;12.20;99.90;;;;;;5013750;28;20049;-52
2021/06/23 03:31:08;;;;;;;6.28;5.32;;;12.30;99.90;;;;;;5013643;28;20540;-51
2021/06/23 03:33:33;;;;;;;7.97;4.75;;;12.50;99.90;;;;;;5013355;28;20033;-51
2021/06/23 03:35:59;;;;;;;8.90;5.82;;;12.70;99.90;;;;;;5021154;28;20025;-51
2021/06/23 03:38:24;;;;;;;5.95;4.50;;;12.90;99.90;;;;;;5032912;28;20042;-49
2021/06/23 03:40:50;;;;;;;7.47;5.72;;;13.10;99.90;;;;;;5031983;28;20451;-50
2021/06/23 03:43:17;;;;;;;6.13;5.00;;;13.60;99.90;;;;;;5032976;28;20029;-51
2021/06/23 03:45:42;;;;;;;9.02;5.78;;;14.00;99.90;;;;;;5033252;28;20025;-49
2021/06/23 03:48:08;;;;;;;7.50;5.75;;;14.40;99.90;;;;;;5032698;28;20384;-50
2021/06/23 03:50:33;;;;;;;8.25;4.80;;;14.80;99.90;;;;;;5032170;28;20022;-50
2021/06/23 03:53:00;;;;;;;6.18;5.50;;;15.00;99.90;;;;;;5031727;28;20031;-50
2021/06/23 03:55:26;;;;;;;6.28;4.93;;;15.00;99.90;;;;;;5032814;28;20025;-55
2021/06/23 03:57:52;;;;;;;6.60;5.43;;;14.90;99.90;;;;;;5032936;28;20384;-53
2021/06/23 04:00:20;;;;;;;6.50;5.22;;;14.80;99.90;;;;;;5032709;28;20112;-52
2021/06/23 04:02:46;;;;;;;8.73;4.57;;;14.80;99.90;;;;;;5027601;28;20037;-53
2021/06/23 04:05:13;;;;;;;8.80;5.25;;;14.90;99.90;;;;;;5029645;28;20641;-54
2021/06/23 04:07:39;;;;;;;7.90;4.82;;;15.00;99.90;;;;;;5032701;28;20434;-54
2021/06/23 04:10:06;;;;;;;6.90;4.63;;;15.20;99.90;;;;;;5032534;28;20045;-50
2021/06/23 04:12:31;;;;;;;5.25;4.75;;;15.30;99.90;;;;;;5040247;28;20072;-51
2021/06/23 04:14:57;;;;;;;5.63;4.70;;;15.30;99.90;;;;;;5052289;28;20065;-54
2021/06/23 04:17:22;;;;;;;3.92;3.38;;;15.20;99.90;;;;;;5052096;28;20041;-50
2021/06/23 04:19:49;;;;;;;6.95;4.63;;;15.00;99.90;;;;;;5052121;28;20029;-54
2021/06/23 04:22:14;;;;;;;8.20;4.88;;;14.90;99.90;;;;;;5051489;28;20036;-51
2021/06/23 04:24:40;;;;;;;10.13;4.78;;;14.90;99.90;;;;;;5051548;28;20415;-51
2021/06/23 04:27:06;;;;;;;8.65;4.55;;;15.00;99.90;;;;;;5052533;28;20468;-51
2021/06/23 04:29:31;;;;;;;6.07;3.85;;;15.90;99.90;;;;;;5052201;28;20064;-49
2021/06/23 04:31:57;;;;;;;5.90;4.60;;;16.80;99.90;;;;;;5052312;28;20029;-51
2021/06/23 04:34:22;;;;;;;5.53;3.97;;;17.80;99.90;;;;;;5052137;28;20530;-53
2021/06/23 04:36:48;;;;;;;4.38;2.92;;;19.30;99.90;;;;;;5031222;28;20034;-54
2021/06/23 04:39:14;;;;;;;4.78;3.20;;;20.80;99.90;;;;;;5029926;28;20044;-49
2021/06/23 04:41:39;;;;;;;3.90;3.40;;;22.40;99.90;;;;;;5032279;28;20045;-53
2021/06/23 04:44:05;;;;;;;5.15;3.70;;;23.70;95.80;;;;;;5032125;28;20057;-49
2021/06/23 04:46:33;;;;;;;3.60;3.20;;;24.80;91.10;;;;;;5031979;28;20030;-55
2021/06/23 04:49:00;;;;;;;3.30;3.00;;;25.40;77.50;;;;;;5031990;28;20465;-53
2021/06/23 04:51:25;;;;;;;5.53;2.90;;;25.90;78.90;;;;;;5031127;28;20029;-54
2021/06/23 04:53:51;;;;;;;4.43;2.85;;;26.70;79.20;;;;;;5032010;28;20052;-51
2021/06/23 04:56:16;;;;;;;4.97;3.17;;;27.40;76.90;;;;;;5032250;28;20444;-53
2021/06/23 04:58:42;;;;;;;3.50;2.55;;;28.00;76.10;;;;;;5032282;28;20033;-50
2021/06/23 05:01:07;;;;;;;4.50;2.53;;;28.40;73.60;;;;;;5032059;28;20040;-53
2021/06/23 05:03:33;;;;;;;3.63;2.63;;;28.90;69.70;;;;;;5032143;28;20461;-54
2021/06/23 05:06:00;;;;;;;3.17;2.40;;;29.40;69.30;;;;;;5031129;28;20022;-50
2021/06/23 05:08:27;;;;;;;3.05;2.10;;;29.80;67.10;;;;;;5032014;28;20017;-50
2021/06/23 05:10:53;;;;;;;3.05;2.28;;;30.40;66.90;;;;;;5032137;28;20080;-51
2021/06/23 05:13:19;;;;;;;3.47;2.17;;;30.60;66.00;;;;;;5046183;28;20032;-53
2021/06/23 05:15:44;;;;;;;3.20;2.33;;;30.40;65.60;;;;;;5051912;28;20357;-50
2021/06/23 05:18:10;;;;;;;4.47;2.80;;;29.90;65.60;;;;;;5051922;28;20044;-54
2021/06/23 05:20:36;;;;;;;3.17;1.92;;;29.30;65.50;;;;;;5049574;28;20139;-53
2021/06/23 05:23:02;;;;;;;2.97;2.40;;;28.50;64.70;;;;;;5051651;28;20029;-53
2021/06/23 05:25:28;;;;;;;3.47;2.53;;;27.70;62.70;;;;;;5051877;28;20380;-51
2021/06/23 05:27:53;;;;;;;5.55;2.53;;;27.70;67.20;;;;;;5051917;28;20033;-55
2021/06/23 05:30:20;;;;;;;4.32;2.97;;;27.80;64.50;;;;;;5051752;28;20464;-54
2021/06/23 05:32:45;;;;;;;6.07;2.47;;;27.80;64.40;;;;;;5051937;28;20033;-55
2021/06/23 05:35:12;;;;;;;3.20;2.13;;;27.90;64.50;;;;;;5048712;28;20035;-51
2021/06/23 05:37:37;;;;;;;2.72;2.25;;;27.80;64.50;;;;;;5035226;28;20033;-51
2021/06/23 05:40:04;;;;;;;4.93;2.10;;;27.60;64.40;;;;;;5032994;28;20030;-58
2021/06/23 05:42:29;;;;;;;2.65;1.98;;;27.60;63.70;;;;;;5035242;28;20025;-58
2021/06/23 05:44:55;;;;;;;3.40;1.83;;;27.90;63.80;;;;;;5035192;28;20064;-54
2021/06/23 05:47:20;;;;;;;2.97;2.08;;;28.10;63.70;;;;;;5035239;28;20049;-54
2021/06/23 05:49:46;;;;;;;3.78;2.25;;;28.70;61.70;;;;;;5034858;28;20314;-52
2021/06/23 05:52:11;;;;;;;5.55;2.42;;;29.40;61.30;;;;;;5034507;28;20036;-54
2021/06/23 05:54:37;;;;;;;4.20;2.22;;;30.10;59.30;;;;;;5035022;28;20021;-54
2021/06/23 05:57:02;;;;;;;4.78;2.10;;;30.80;58.20;;;;;;5035178;28;20049;-54
2021/06/23 05:59:29;;;;;;;3.65;2.10;;;31.50;57.50;;;;;;5034744;28;20029;-54
2021/06/23 06:01:55;;;;;;;3.10;2.30;;;32.10;56.30;;;;;;5034834;28;20104;-56
2021/06/23 06:04:20;;;;;;;3.75;1.98;;;32.40;55.30;;;;;;5034945;28;20057;-56
2021/06/23 06:06:46;;;;;;;4.82;2.00;;;31.90;55.20;;;;;;5033929;28;20342;-56
2021/06/23 06:09:11;;;;;;;2.90;2.13;;;31.70;55.40;;;;;;5034833;28;20041;-57
2021/06/23 06:11:37;;;;;;;4.20;2.30;;;31.60;54.60;;;;;;5033848;28;20036;-54
2021/06/23 06:14:03;;;;;;;3.30;2.00;;;31.70;53.90;;;;;;5055917;28;20025;-57
2021/06/23 06:16:28;;;;;;;3.63;2.08;;;31.60;53.90;;;;;;5054540;28;20497;-54
2021/06/23 06:18:56;;;;;;;2.83;1.90;;;31.30;52.70;;;;;;5054619;28;20036;-57
2021/06/23 06:21:21;;;;;;;2.70;2.00;;;31.10;53.60;;;;;;5053622;28;20029;-52
2021/06/23 06:23:47;;;;;;;5.85;2.00;;;31.20;53.50;;;;;;5054461;28;20531;-52
2021/06/23 06:26:12;;;;;;;2.92;1.75;;;31.20;53.20;;;;;;5053295;28;20056;-54
2021/06/23 06:28:39;;;;;;;3.53;2.13;;;31.30;53.30;;;;;;5054605;28;20033;-52
2021/06/23 06:31:05;;;;;;;1.88;1.70;;;31.70;52.90;;;;;;5054440;28;20074;-54
2021/06/23 06:33:30;;;;;;;3.47;2.10;;;32.80;51.80;;;;;;5054126;28;20039;-54
2021/06/23 06:35:56;;;;;;;3.95;2.08;;;34.10;50.40;;;;;;5045255;28;20108;-54
2021/06/23 06:38:21;;;;;;;4.13;1.70;;;35.00;49.10;;;;;;5034011;28;20084;-53
2021/06/23 06:40:47;;;;;;;3.03;2.10;;;35.60;48.50;;;;;;5034241;28;20041;-50
2021/06/23 06:43:12;;;;;;;3.10;1.92;;;35.70;48.10;;;;;;5034381;28;20022;-52
2021/06/23 06:45:38;;;;;;;2.72;1.83;;;35.80;47.70;;;;;;5033829;28;20022;-53
2021/06/23 06:48:04;;;;;;;4.60;1.92;;;35.60;47.70;;;;;;5033570;28;20473;-55
2021/06/23 06:50:30;;;;;;;3.70;2.22;;;35.70;47.50;;;;;;5033048;28;20060;-53
2021/06/23 06:52:55;;;;;;;2.83;1.98;;;35.70;47.30;;;;;;5034017;28;20493;-56
2021/06/23 06:55:21;;;;;;;3.90;1.90;;;35.40;47.00;;;;;;5033915;28;20026;-50
2021/06/23 06:57:51;;;;;;;2.33;1.80;;;34.50;47.40;;;;;;5032551;28;20022;-52
2021/06/23 07:00:18;;;;;;;3.28;1.75;;;33.50;48.00;;;;;;5032093;28;20492;-56
2021/06/23 07:02:44;;;;;;;4.85;2.17;;;32.70;48.70;;;;;;5033170;28;20022;-52
2021/06/23 07:05:10;;;;;;;3.33;2.15;;;32.10;49.00;;;;;;5033170;28;20096;-53
2021/06/23 07:07:35;;;;;;;2.40;1.67;;;31.30;49.20;;;;;;5031271;28;20064;-58
2021/06/23 07:10:01;;;;;;;4.38;2.08;;;30.90;49.70;;;;;;5033347;28;20048;-57
2021/06/23 07:12:27;;;;;;;3.35;2.58;;;30.50;49.90;;;;;;5031526;28;20044;-54
2021/06/23 07:14:52;;;;;;;4.70;2.35;;;30.20;50.20;;;;;;5032763;28;20045;-54
2021/06/23 07:17:18;;;;;;;3.25;2.10;;;29.80;50.50;;;;;;5033206;28;20480;-54
2021/06/23 07:19:43;;;;;;;2.17;1.90;;;29.50;50.70;;;;;;5032507;28;20120;-55
2021/06/23 07:22:08;;;;;;;2.33;2.13;;;29.30;51.00;;;;;;5050599;28;20383;-58
2021/06/23 07:24:34;;;;;;;4.65;1.65;;;29.20;51.10;;;;;;5033085;28;20115;-55
2021/06/23 07:26:59;;;;;;;4.80;2.10;;;29.30;50.90;;;;;;5033456;28;20026;-55
2021/06/23 07:29:27;;;;;;;2.72;2.05;;;29.80;50.40;;;;;;5032715;28;20030;-54
2021/06/23 07:31:58;;;;;;;3.75;1.85;;;30.40;49.80;;;;;;5032649;28;20038;-54
2021/06/23 07:37:03;;;;;;;3.95;1.85;;;33.20;47.10;;;;;;5032340;28;20045;-55
2021/06/23 07:39:30;;;;;;;3.20;1.90;;;34.20;46.00;;;;;;5028773;28;20037;-56
2021/06/23 07:41:57;;;;;;;2.75;1.40;;;34.50;45.50;;;;;;5033048;28;20104;-55
2021/06/23 07:44:30;;;;;;;2.75;1.70;;;34.70;44.90;;;;;;5032507;28;20033;-59
2021/06/23 07:47:02;;;;;;;5.38;1.88;;;36.00;44.20;;;;;;5032177;28;20021;-57
2021/06/23 07:49:30;;;;;;;2.60;1.98;;;37.70;42.90;;;;;;5031690;28;20389;-53
2021/06/23 07:52:03;;;;;;;2.45;1.52;;;39.10;41.60;;;;;;5031765;28;20025;-51
2021/06/23 07:55:41;;;;;;;2.47;1.65;;;40.10;40.60;;;;;;5032791;28;20058;-58
2021/06/23 08:03:03;;;;;;;3.88;2.03;;;38.10;40.80;;;;;;5032277;28;20479;-57
2021/06/23 08:08:24;;;;;;;5.15;1.63;;;40.10;38.50;;;;;;5032342;28;20105;-56
2021/06/23 08:10:54;;;;;;;4.10;1.80;;;40.30;38.00;;;;;;5028206;28;20048;-58
2021/06/23 08:13:20;;;;;;;1.83;1.40;;;39.50;38.00;;;;;;5047221;28;20029;-56
2021/06/23 08:15:47;;;;;;;3.92;1.90;;;38.20;38.70;;;;;;5058297;28;20060;-58
2021/06/23 08:18:15;;;;;;;3.45;1.65;;;36.70;39.40;;;;;;5032028;28;20060;-58
2021/06/23 08:20:41;;;;;;;2.13;1.63;;;35.20;40.20;;;;;;5049192;28;20082;-56
2021/06/23 08:23:08;;;;;;;4.63;1.50;;;34.20;41.40;;;;;;5050117;28;20036;-58
2021/06/23 08:25:34;;;;;;;2.85;1.75;;;33.20;42.10;;;;;;5049468;28;20045;-57
2021/06/23 08:28:00;;;;;;;2.35;1.70;;;32.50;42.60;;;;;;5047241;28;20027;-58
2021/06/23 08:30:26;;;;;;;2.13;1.33;;;32.20;43.00;;;;;;5049794;28;20125;-56
2021/06/23 08:32:55;;;;;;;4.88;1.70;;;31.90;43.10;;;;;;5049952;28;20067;-58
2021/06/23 08:35:21;;;;;;;5.57;1.80;;;31.80;43.00;;;;;;5049029;28;20031;-58
2021/06/23 08:37:47;;;;;;;3.53;1.73;;;31.60;43.10;;;;;;5050011;28;20476;-53
2021/06/23 08:40:14;;;;;;;3.47;1.85;;;31.20;43.20;;;;;;5047125;28;20156;-57
2021/06/23 08:42:40;;;;;;;3.28;1.80;;;31.00;43.50;;;;;;5010102;28;20038;-58
2021/06/23 08:45:07;;;;;;;3.72;1.65;;;30.80;43.60;;;;;;5010403;28;20042;-52
2021/06/23 08:47:44;;;;;;;4.55;1.90;;;30.60;43.90;;;;;;5010309;28;20057;-57
2021/06/23 08:50:12;;;;;;;5.03;1.80;;;30.70;44.60;;;;;;4993530;28;20375;-50
2021/06/23 08:52:38;;;;;;;2.28;1.27;;;30.80;44.00;;;;;;4990665;28;20477;-55
2021/06/23 08:55:05;;;;;;;3.30;1.80;;;30.90;44.00;;;;;;4990438;28;20066;-58
2021/06/23 08:57:33;;;;;;;4.47;1.75;;;30.70;44.20;;;;;;4990806;28;20030;-55
2021/06/23 09:00:00;;;;;;;5.30;2.20;;;30.50;44.50;;;;;;4987493;28;20046;-53
2021/06/23 09:02:28;;;;;;;2.83;1.67;;;30.50;44.50;;;;;;4976158;28;20138;-56
2021/06/23 09:04:54;;;;;;;4.43;1.77;;;30.30;44.80;;;;;;4979095;28;20035;-55
2021/06/23 09:07:38;;;;;;;5.35;1.70;;;29.80;45.30;;;;;;4987495;28;20090;-57
2021/06/23 09:10:14;;;;;;;3.53;1.85;;;29.50;46.00;;;;;;4990267;28;20077;-55
2021/06/23 09:12:41;;;;;;;3.58;2.13;;;29.20;46.10;;;;;;5003190;28;20030;-53
2021/06/23 09:15:07;;;;;;;4.32;1.63;;;29.00;46.50;;;;;;5013993;28;20124;-56
2021/06/23 09:17:34;;;;;;;3.70;1.75;;;28.80;46.60;;;;;;5009683;28;20105;-57
2021/06/23 09:20:01;;;;;;;4.95;1.73;;;28.80;47.00;;;;;;5032314;28;20045;-54
2021/06/23 09:22:40;;;;;;;4.93;1.77;;;28.50;47.20;;;;;;5056994;28;20094;-52
2021/06/23 09:25:23;;;;;;;2.28;1.65;;;28.40;47.90;;;;;;5055450;28;20025;-53
2021/06/23 09:27:52;;;;;;;4.80;2.10;;;28.20;48.20;;;;;;5055586;28;20013;-54
2021/06/23 09:30:34;;;;;;;4.63;2.08;;;28.00;48.40;;;;;;5055527;28;20029;-55
2021/06/23 09:33:11;;;;;;;4.25;1.88;;;28.00;49.00;;;;;;5055634;28;20021;-54
2021/06/23 09:35:40;;;;;;;3.45;1.88;;;28.00;48.70;;;;;;5048988;28;20017;-56
2021/06/23 09:38:06;;;;;;;4.47;2.05;;;27.90;48.40;;;;;;5035624;28;20028;-56
2021/06/23 09:40:41;;;;;;;2.67;1.95;;;28.20;48.40;;;;;;5035285;28;20017;-54
2021/06/23 09:43:10;;;;;;;;;;;28.70;48.70;;;;;;5035928;28;20026;-57
2021/06/23 09:45:35;;;;;;;5.95;2.28;;;29.30;48.00;;;;;;5035279;28;19905;-56
2021/06/23 09:48:10;;;;;;;4.18;1.83;;;30.50;47.20;;;;;;5035445;28;20362;-54
2021/06/23 09:50:39;;;;;;;6.47;1.90;;;31.50;45.70;;;;;;5034463;28;20474;-56
2021/06/23 09:53:11;;;;;;;5.25;1.73;;;31.80;45.20;;;;;;5033806;28;20163;-55
2021/06/23 09:55:42;;;;;;;3.80;1.80;;;31.60;45.70;;;;;;5035012;28;20381;-54
2021/06/23 09:58:20;;;;;;;4.47;2.00;;;31.40;45.40;;;;;;5035172;28;20436;-52
2021/06/23 10:01:00;;;;;;;5.53;2.00;;;31.00;45.60;;;;;;5034936;28;20021;-58
2021/06/23 10:03:30;;;;;;;5.07;1.90;;;30.80;45.80;;;;;;5035177;28;20021;-57
2021/06/23 10:05:56;;;;;;;2.38;1.73;;;30.80;45.90;;;;;;5033901;28;20036;-54
2021/06/23 10:08:24;;;;;;;3.92;2.22;;;30.80;45.70;;;;;;5034946;28;20564;-52
2021/06/23 10:10:51;;;;;;;4.25;1.90;;;30.60;45.80;;;;;;5034245;28;20046;-53
2021/06/23 10:13:19;;;;;;;3.13;1.60;;;30.50;46.00;;;;;;5049053;28;20380;-56
2021/06/23 10:15:47;;;;;;;4.60;1.92;;;30.30;46.20;;;;;;5055664;28;20036;-55
2021/06/23 10:18:14;;;;;;;5.88;2.08;;;30.10;46.40;;;;;;5055569;28;20099;-56
2021/06/23 10:20:41;;;;;;;5.05;1.90;;;29.70;46.60;;;;;;5054884;28;20025;-55
2021/06/23 10:23:08;;;;;;;4.82;2.10;;;29.60;46.90;;;;;;5053443;28;20031;-57
2021/06/23 10:25:35;;;;;;;6.00;2.00;;;29.40;47.00;;;;;;5054485;28;20108;-56
2021/06/23 10:28:01;;;;;;;4.35;1.95;;;29.40;47.10;;;;;;5054423;28;20027;-56
2021/06/23 10:30:29;;;;;;;5.50;2.20;;;29.50;47.10;;;;;;5053233;28;20029;-54
2021/06/23 10:32:55;;;;;;;5.55;2.17;;;29.40;47.20;;;;;;5054398;28;20021;-54
2021/06/23 10:35:21;;;;;;;3.75;1.75;;;29.20;47.40;;;;;;5049641;28;20025;-56
2021/06/23 10:37:48;;;;;;;6.85;1.95;;;29.10;47.60;;;;;;5034524;28;20154;-54
2021/06/23 10:40:15;;;;;;;2.58;1.45;;;29.00;48.40;;;;;;5034510;28;20416;-53
2021/06/23 10:42:42;;;;;;;2.33;1.80;;;29.00;47.80;;;;;;5034296;28;20029;-54
2021/06/23 10:45:09;;;;;;;4.05;2.03;;;28.90;47.70;;;;;;5034223;28;20408;-51
2021/06/23 10:47:38;;;;;;;4.05;2.17;;;28.80;47.80;;;;;;5048783;28;20033;-56
2021/06/23 10:50:06;;;;;;;5.68;2.00;;;28.70;47.90;;;;;;5033229;28;20674;-53
2021/06/23 10:52:36;;;;;;;5.65;2.22;;;28.50;47.90;;;;;;5034332;28;20030;-55
2021/06/23 10:55:23;;;;;;;3.75;1.58;;;28.50;47.70;;;;;;5033967;28;20464;-56
2021/06/23 10:57:51;;;;;;;5.90;2.28;;;28.50;48.20;;;;;;5048161;28;20067;-54
2021/06/23 11:00:32;;;;;;;3.80;1.50;;;28.40;48.20;;;;;;5034106;28;20022;-54
2021/06/23 11:03:02;;;;;;;5.15;2.00;;;28.40;48.50;;;;;;5034013;28;20034;-53
2021/06/23 11:05:35;;;;;;;4.53;1.75;;;28.40;48.80;;;;;;5032945;28;20480;-57
2021/06/23 11:08:02;;;;;;;2.78;1.80;;;28.20;48.70;;;;;;5033905;28;20029;-55
2021/06/23 11:10:33;;;;;;;5.40;1.73;;;27.90;49.20;;;;;;5033336;28;20038;-56
2021/06/23 11:13:04;;;;;;;3.15;1.63;;;27.60;49.60;;;;;;5042287;28;20041;-54
2021/06/23 11:15:33;;;;;;;3.58;1.88;;;27.40;49.90;;;;;;5051354;28;20036;-54
2021/06/23 11:18:18;;;;;;;3.45;1.90;;;27.00;50.30;;;;;;5051344;28;20171;-56
2021/06/23 11:20:49;;;;;;;4.45;2.00;;;26.70;50.90;;;;;;5050309;28;20028;-56
2021/06/23 11:23:43;;;;;;;3.92;2.08;;;26.40;51.20;;;;;;5051297;28;20492;-55
2021/06/23 11:26:29;;;;;;;6.10;1.90;;;26.10;51.70;;;;;;5051154;28;20060;-54
2021/06/23 11:29:24;;;;;;;2.40;1.77;;;25.80;52.10;;;;;;5040675;28;20033;-54
2021/06/23 11:31:59;;;;;;;5.13;2.17;;;25.60;52.70;;;;;;5034448;28;20033;-56
2021/06/23 11:34:46;;;;;;;3.90;1.80;;;25.50;52.30;;;;;;5050944;28;20051;-57
2021/06/23 11:37:17;;;;;;;4.82;1.90;;;25.50;53.30;;;;;;5032241;28;20057;-54
2021/06/23 11:39:44;;;;;;;5.38;2.50;;;25.70;52.50;;;;;;5025079;28;20116;-57
2021/06/23 11:42:10;;;;;;;4.45;2.40;;;25.80;52.30;;;;;;5030858;28;20080;-56
2021/06/23 11:44:38;;;;;;;4.38;1.80;;;26.10;52.10;;;;;;5026351;28;20052;-54
2021/06/23 11:47:04;;;;;;;3.55;1.98;;;26.30;52.10;;;;;;5030820;28;20034;-52
2021/06/23 11:49:29;;;;;;;6.90;1.67;;;26.40;51.70;;;;;;5014345;28;20087;-52
2021/06/23 11:51:58;;;;;;;3.92;2.00;;;26.50;51.50;;;;;;5013230;28;20505;-53
2021/06/23 11:54:24;;;;;;;3.50;2.00;;;26.60;51.40;;;;;;5014274;28;20088;-56
2021/06/23 11:56:51;;;;;;;3.33;1.92;;;26.60;51.20;;;;;;5030719;28;20588;-55
2021/06/23 11:59:16;;;;;;;4.25;2.00;;;26.70;51.20;;;;;;5030577;28;20091;-53
2021/06/23 12:01:43;;;;;;;2.22;1.92;;;26.90;51.20;;;;;;5023915;28;20029;-57
2021/06/23 12:04:10;;;;;;;7.80;2.35;;;27.10;50.90;;;;;;5030690;28;20030;-56
2021/06/23 12:06:37;;;;;;;5.97;2.20;;;27.00;50.90;;;;;;5029572;28;20025;-55
2021/06/23 12:09:02;;;;;;;5.53;1.95;;;26.80;51.20;;;;;;5030428;28;20026;-55
2021/06/23 12:11:29;;;;;;;3.25;1.70;;;26.50;51.40;;;;;;5030578;28;20041;-57
2021/06/23 12:13:54;;;;;;;3.92;2.35;;;26.20;51.90;;;;;;5026005;28;20041;-56
2021/06/23 12:16:21;;;;;;;7.15;2.33;;;25.70;52.30;;;;;;5026332;28;20048;-55
2021/06/23 12:18:47;;;;;;;7.38;2.25;;;25.30;52.90;;;;;;5032404;28;20067;-50
2021/06/23 12:21:12;;;;;;;5.43;1.73;;;24.90;53.50;;;;;;5029086;28;20076;-53
2021/06/23 12:23:39;;;;;;;4.47;2.40;;;24.50;54.10;;;;;;5032223;28;20393;-57
2021/06/23 12:26:05;;;;;;;3.72;1.92;;;24.20;54.60;;;;;;5032320;28;20556;-55
2021/06/23 12:28:30;;;;;;;3.65;1.75;;;24.00;55.20;;;;;;5032342;28;20052;-52
2021/06/23 12:30:56;;;;;;;8.02;2.47;;;23.70;56.00;;;;;;5032316;28;20033;-50
2021/06/23 12:33:22;;;;;;;5.25;2.30;;;23.50;56.90;;;;;;5032580;28;20129;-54
2021/06/23 12:35:47;;;;;;;4.78;1.67;;;23.30;57.90;;;;;;5031361;28;20061;-53
2021/06/23 12:38:15;;;;;;;4.10;1.98;;;23.20;59.00;;;;;;5031297;28;20026;-52
2021/06/23 12:40:42;;;;;;;4.70;2.00;;;23.20;59.60;;;;;;5032305;28;20021;-51
2021/06/23 12:43:15;;;;;;;6.20;2.42;;;23.00;60.40;;;;;;5032384;28;20465;-55
2021/06/23 12:45:44;;;;;;;4.18;2.53;;;23.00;61.30;;;;;;5032676;28;20018;-55
2021/06/23 12:48:09;;;;;;;3.35;2.17;;;23.00;61.90;;;;;;5035242;28;20022;-55
2021/06/23 12:50:35;;;;;;;7.18;2.17;;;23.00;62.50;;;;;;5035381;28;20047;-53
2021/06/23 12:53:01;;;;;;;4.20;2.88;;;23.10;62.90;;;;;;5035999;28;20464;-52
2021/06/23 12:55:27;;;;;;;5.15;2.30;;;23.30;63.60;;;;;;5036394;28;20112;-53
2021/06/23 12:57:53;;;;;;;9.35;2.78;;;23.30;63.60;;;;;;5036174;28;20025;-54
2021/06/23 13:00:20;;;;;;;6.07;2.22;;;23.30;64.10;;;;;;5036135;28;20025;-51
2021/06/23 13:02:46;;;;;;;6.78;2.55;;;23.30;64.40;;;;;;5036014;28;20079;-54
2021/06/23 13:05:13;;;;;;;4.78;2.05;;;23.20;64.80;;;;;;5034991;28;20021;-49
2021/06/23 13:07:39;;;;;;;5.45;2.67;;;23.10;65.40;;;;;;5031714;28;20026;-53
2021/06/23 13:10:07;;;;;;;6.03;2.40;;;22.90;66.00;;;;;;5034709;28;20063;-52